sensor_id;sensor_type;location;lat;lon;timestamp;P1;durP1;ratioP1;P2;durP2;ratioP2
45734;SDS011;31446;49.632;8.328;2023-04-06T00:13:13;17.30;;;8.48;;
45734;SDS011;31446;49.632;8.328;2023-04-06T00:28:22;16.83;;;9.13;;
45734;SDS011;31446;49.632;8.328;2023-04-06T00:43:29;14.45;;;7.65;;
45734;SDS011;31446;49.632;8.328;2023-04-06T00:58:36;14.68;;;7.97;;
45734;SDS011;31446;49.632;8.328;2023-04-06T01:13:43;14.50;;;7.72;;
45734;SDS011;31446;49.632;8.328;2023-04-06T01:28:49;14.77;;;7.93;;
45734;SDS011;31446;49.632;8.328;2023-04-06T01:43:56;9.73;;;6.75;;
45734;SDS011;31446;49.632;8.328;2023-04-06T01:59:03;13.18;;;7.80;;
45734;SDS011;31446;49.632;8.328;2023-04-06T02:14:09;13.73;;;6.93;;
45734;SDS011;31446;49.632;8.328;2023-04-06T02:29:15;17.38;;;7.20;;
45734;SDS011;31446;49.632;8.328;2023-04-06T02:44:22;13.38;;;6.25;;
45734;SDS011;31446;49.632;8.328;2023-04-06T02:59:29;12.70;;;6.43;;
45734;SDS011;31446;49.632;8.328;2023-04-06T03:14:35;13.70;;;7.20;;
45734;SDS011;31446;49.632;8.328;2023-04-06T03:29:43;15.73;;;6.93;;
45734;SDS011;31446;49.632;8.328;2023-04-06T03:44:49;15.70;;;7.57;;
45734;SDS011;31446;49.632;8.328;2023-04-06T03:59:56;14.55;;;7.47;;
45734;SDS011;31446;49.632;8.328;2023-04-06T04:15:03;12.82;;;6.63;;
45734;SDS011;31446;49.632;8.328;2023-04-06T04:30:10;12.93;;;6.95;;
45734;SDS011;31446;49.632;8.328;2023-04-06T04:45:18;23.70;;;11.88;;
45734;SDS011;31446;49.632;8.328;2023-04-06T05:00:24;17.75;;;8.20;;
45734;SDS011;31446;49.632;8.328;2023-04-06T05:15:31;21.55;;;11.32;;
45734;SDS011;31446;49.632;8.328;2023-04-06T05:30:40;20.95;;;11.57;;
45734;SDS011;31446;49.632;8.328;2023-04-06T05:45:48;30.63;;;15.00;;
45734;SDS011;31446;49.632;8.328;2023-04-06T06:00:59;27.75;;;13.05;;
45734;SDS011;31446;49.632;8.328;2023-04-06T06:16:06;19.50;;;9.73;;
45734;SDS011;31446;49.632;8.328;2023-04-06T06:31:13;22.15;;;8.82;;
45734;SDS011;31446;49.632;8.328;2023-04-06T06:46:19;23.60;;;7.82;;
45734;SDS011;31446;49.632;8.328;2023-04-06T07:01:26;12.98;;;8.60;;
45734;SDS011;31446;49.632;8.328;2023-04-06T07:16:32;28.40;;;9.70;;
45734;SDS011;31446;49.632;8.328;2023-04-06T07:31:39;15.35;;;8.98;;
45734;SDS011;31446;49.632;8.328;2023-04-06T07:46:45;15.82;;;8.85;;
45734;SDS011;31446;49.632;8.328;2023-04-06T08:01:52;17.95;;;8.13;;
45734;SDS011;31446;49.632;8.328;2023-04-06T08:17:02;13.80;;;7.97;;
45734;SDS011;31446;49.632;8.328;2023-04-06T08:32:09;215.07;;;16.02;;
45734;SDS011;31446;49.632;8.328;2023-04-06T08:47:15;16.70;;;6.78;;
45734;SDS011;31446;49.632;8.328;2023-04-06T09:02:22;16.83;;;8.55;;
45734;SDS011;31446;49.632;8.328;2023-04-06T09:17:29;21.15;;;8.73;;
45734;SDS011;31446;49.632;8.328;2023-04-06T09:32:46;19.35;;;9.60;;
45734;SDS011;31446;49.632;8.328;2023-04-06T09:47:54;16.65;;;9.68;;
45734;SDS011;31446;49.632;8.328;2023-04-06T10:03:10;27.27;;;9.13;;
45734;SDS011;31446;49.632;8.328;2023-04-06T10:18:26;21.38;;;8.90;;
45734;SDS011;31446;49.632;8.328;2023-04-06T10:33:33;14.77;;;7.57;;
45734;SDS011;31446;49.632;8.328;2023-04-06T10:48:40;17.00;;;8.00;;
45734;SDS011;31446;49.632;8.328;2023-04-06T11:03:48;11.38;;;7.07;;
45734;SDS011;31446;49.632;8.328;2023-04-06T11:18:57;13.57;;;6.25;;
45734;SDS011;31446;49.632;8.328;2023-04-06T11:34:04;12.77;;;5.32;;
45734;SDS011;31446;49.632;8.328;2023-04-06T11:49:15;11.00;;;4.85;;
45734;SDS011;31446;49.632;8.328;2023-04-06T12:04:24;10.82;;;5.60;;
45734;SDS011;31446;49.632;8.328;2023-04-06T12:19:31;9.23;;;5.15;;
45734;SDS011;31446;49.632;8.328;2023-04-06T12:34:37;9.38;;;5.15;;
45734;SDS011;31446;49.632;8.328;2023-04-06T12:49:44;11.07;;;6.25;;
45734;SDS011;31446;49.632;8.328;2023-04-06T13:04:50;10.45;;;6.18;;
45734;SDS011;31446;49.632;8.328;2023-04-06T13:19:57;180.80;;;15.40;;
45734;SDS011;31446;49.632;8.328;2023-04-06T13:35:04;8.70;;;4.30;;
45734;SDS011;31446;49.632;8.328;2023-04-06T13:50:12;17.65;;;4.57;;
45734;SDS011;31446;49.632;8.328;2023-04-06T14:05:18;81.60;;;13.55;;
45734;SDS011;31446;49.632;8.328;2023-04-06T14:20:26;9.32;;;5.40;;
45734;SDS011;31446;49.632;8.328;2023-04-06T14:35:33;11.40;;;4.95;;
45734;SDS011;31446;49.632;8.328;2023-04-06T14:50:50;10.00;;;5.78;;
45734;SDS011;31446;49.632;8.328;2023-04-06T15:05:57;12.00;;;4.40;;
45734;SDS011;31446;49.632;8.328;2023-04-06T15:21:04;5.55;;;2.55;;
45734;SDS011;31446;49.632;8.328;2023-04-06T15:36:16;8.60;;;3.05;;
45734;SDS011;31446;49.632;8.328;2023-04-06T15:51:29;5.93;;;2.90;;
45734;SDS011;31446;49.632;8.328;2023-04-06T16:06:35;3.08;;;2.25;;
45734;SDS011;31446;49.632;8.328;2023-04-06T16:21:42;6.20;;;3.33;;
45734;SDS011;31446;49.632;8.328;2023-04-06T16:36:49;7.03;;;3.63;;
45734;SDS011;31446;49.632;8.328;2023-04-06T16:51:55;5.53;;;3.65;;
45734;SDS011;31446;49.632;8.328;2023-04-06T17:07:04;5.75;;;3.03;;
45734;SDS011;31446;49.632;8.328;2023-04-06T17:22:12;10.43;;;4.10;;
45734;SDS011;31446;49.632;8.328;2023-04-06T17:37:22;5.85;;;2.80;;
45734;SDS011;31446;49.632;8.328;2023-04-06T17:52:29;4.93;;;3.22;;
45734;SDS011;31446;49.632;8.328;2023-04-06T18:07:36;4.80;;;3.22;;
45734;SDS011;31446;49.632;8.328;2023-04-06T18:22:43;4.88;;;3.70;;
45734;SDS011;31446;49.632;8.328;2023-04-06T18:37:49;8.10;;;4.30;;
45734;SDS011;31446;49.632;8.328;2023-04-06T18:52:55;7.53;;;4.45;;
45734;SDS011;31446;49.632;8.328;2023-04-06T19:08:02;7.55;;;4.82;;
45734;SDS011;31446;49.632;8.328;2023-04-06T19:23:08;7.38;;;5.60;;
45734;SDS011;31446;49.632;8.328;2023-04-06T19:38:15;11.88;;;7.40;;
45734;SDS011;31446;49.632;8.328;2023-04-06T19:53:21;14.77;;;7.32;;
45734;SDS011;31446;49.632;8.328;2023-04-06T20:08:27;13.65;;;9.52;;
45734;SDS011;31446;49.632;8.328;2023-04-06T20:23:35;14.32;;;10.07;;
45734;SDS011;31446;49.632;8.328;2023-04-06T20:38:41;16.08;;;10.15;;
45734;SDS011;31446;49.632;8.328;2023-04-06T20:53:48;18.13;;;11.02;;
45734;SDS011;31446;49.632;8.328;2023-04-06T21:08:55;18.80;;;11.15;;
45734;SDS011;31446;49.632;8.328;2023-04-06T21:24:01;22.95;;;12.30;;
45734;SDS011;31446;49.632;8.328;2023-04-06T21:39:08;18.02;;;11.40;;
45734;SDS011;31446;49.632;8.328;2023-04-06T21:54:14;20.38;;;12.32;;
45734;SDS011;31446;49.632;8.328;2023-04-06T22:09:21;18.77;;;11.88;;
45734;SDS011;31446;49.632;8.328;2023-04-06T22:24:27;18.65;;;12.05;;
45734;SDS011;31446;49.632;8.328;2023-04-06T22:39:34;17.48;;;11.65;;
45734;SDS011;31446;49.632;8.328;2023-04-06T22:54:40;22.58;;;14.02;;
45734;SDS011;31446;49.632;8.328;2023-04-06T23:09:47;21.95;;;13.57;;
45734;SDS011;31446;49.632;8.328;2023-04-06T23:24:53;23.65;;;14.07;;
45734;SDS011;31446;49.632;8.328;2023-04-06T23:40:00;23.35;;;14.05;;
45734;SDS011;31446;49.632;8.328;2023-04-06T23:55:07;27.60;;;14.40;;
